createdAt,value
2023-01-13T00:01:19.610Z,99585.25
2023-01-13T00:03:47.016Z,99564.69
2023-01-13T00:06:16.612Z,99568.09
2023-01-13T00:08:43.784Z,99564.69
2023-01-13T00:11:11.614Z,99551.88
2023-01-13T00:13:39.111Z,99557.84
2023-01-13T00:16:12.289Z,99562.97
2023-01-13T00:18:39.585Z,99559.53
2023-01-13T00:21:11.051Z,99554.38
2023-01-13T00:23:38.286Z,99554.38
2023-01-13T00:26:14.857Z,99552.69
2023-01-13T00:28:42.129Z,99548.41
2023-01-13T00:31:11.429Z,99550.09
2023-01-13T00:33:39.009Z,99539.00
2023-01-13T00:36:08.086Z,99537.25
2023-01-13T00:38:36.428Z,99530.41
2023-01-13T00:41:09.587Z,99538.97
2023-01-13T00:43:37.965Z,99540.66
2023-01-13T00:46:07.293Z,99532.09
2023-01-13T00:48:35.730Z,99526.97
2023-01-13T00:51:17.837Z,99529.53
2023-01-13T00:53:47.430Z,99519.22
2023-01-13T00:56:22.025Z,99525.25
2023-01-13T00:58:57.316Z,99520.97
2023-01-13T01:01:25.204Z,99523.50
2023-01-13T01:03:54.179Z,99521.78
2023-01-13T01:06:24.261Z,99527.81
2023-01-13T01:08:52.728Z,99514.91
2023-01-13T01:11:22.924Z,99509.75
2023-01-13T01:13:52.811Z,99518.34
2023-01-13T01:16:22.322Z,99500.31
2023-01-13T01:18:51.379Z,99509.78
2023-01-13T01:21:19.541Z,99502.06
2023-01-13T01:23:46.786Z,99501.22
2023-01-13T01:26:16.590Z,99493.47
2023-01-13T01:28:44.595Z,99489.19
2023-01-13T01:31:17.461Z,99497.75
2023-01-13T01:33:44.863Z,99490.00
2023-01-13T01:36:12.885Z,99493.44
2023-01-13T01:38:40.040Z,99487.44
2023-01-13T01:41:07.699Z,99483.16
2023-01-13T01:44:01.871Z,99476.31
2023-01-13T01:46:41.022Z,99482.28
2023-01-13T01:49:13.968Z,99478.03
2023-01-13T01:51:53.631Z,99474.59
2023-01-13T01:54:30.098Z,99475.44
2023-01-13T01:56:57.566Z,99478.88
2023-01-13T01:59:32.941Z,99467.72
2023-01-13T02:02:00.492Z,99469.41
2023-01-13T02:04:38.967Z,99453.19
2023-01-13T02:07:06.512Z,99461.69
2023-01-13T02:09:34.479Z,99468.56
2023-01-13T02:12:20.217Z,99458.28
2023-01-13T02:14:47.419Z,99454.81
2023-01-13T02:17:45.595Z,99457.44
2023-01-13T02:20:18.317Z,99446.25
2023-01-13T02:22:54.293Z,99455.69
2023-01-13T02:25:36.514Z,99453.13
2023-01-13T02:28:35.766Z,99446.25
2023-01-13T02:31:34.272Z,99444.56
2023-01-13T02:34:26.019Z,99423.16
2023-01-13T02:37:02.208Z,99434.31
2023-01-13T02:39:40.205Z,99442.88
2023-01-13T02:42:42.527Z,99435.16
2023-01-13T02:45:26.401Z,99437.75
2023-01-13T02:47:56.480Z,99437.75
2023-01-13T02:50:31.186Z,99434.28
2023-01-13T02:53:08.729Z,99438.56
2023-01-13T02:55:43.513Z,99437.75
2023-01-13T02:58:15.860Z,99425.75
2023-01-13T03:00:45.019Z,99421.41
2023-01-13T03:03:12.058Z,99422.25
2023-01-13T03:05:41.461Z,99422.31
2023-01-13T03:08:15.908Z,99433.41
2023-01-13T03:11:17.757Z,99434.25
2023-01-13T03:14:05.879Z,99430.81
2023-01-13T03:16:44.739Z,99427.41
2023-01-13T03:19:33.449Z,99432.56
2023-01-13T03:22:09.402Z,99430.81
2023-01-13T03:24:53.150Z,99423.09
2023-01-13T03:27:34.155Z,99428.25
2023-01-13T03:30:34.260Z,99423.94
2023-01-13T03:33:16.067Z,99415.38
2023-01-13T03:35:53.930Z,99415.38
2023-01-13T03:38:28.367Z,99421.34
2023-01-13T03:40:59.770Z,99423.91
2023-01-13T03:43:50.590Z,99412.78
2023-01-13T03:46:29.549Z,99417.94
2023-01-13T03:48:59.975Z,99414.47
2023-01-13T03:51:29.525Z,99412.81
2023-01-13T03:54:00.985Z,99417.94
2023-01-13T03:56:38.350Z,99405.09
2023-01-13T03:59:09.087Z,99419.63
2023-01-13T04:01:44.458Z,99406.75
2023-01-13T04:04:19.892Z,99423.88
2023-01-13T04:07:03.768Z,99416.16
2023-01-13T04:09:39.846Z,99416.16
2023-01-13T04:12:18.772Z,99429.03
2023-01-13T04:14:46.659Z,99421.31
2023-01-13T04:17:14.045Z,99429.03
2023-01-13T04:19:41.109Z,99422.13
2023-01-13T04:22:08.231Z,99411.84
2023-01-13T04:24:35.280Z,99419.56
2023-01-13T04:27:02.403Z,99415.25
2023-01-13T04:29:29.571Z,99407.53
2023-01-13T04:31:56.627Z,99411.84
2023-01-13T04:34:23.694Z,99418.66
2023-01-13T04:36:50.772Z,99414.38
2023-01-13T04:39:18.248Z,99420.38
2023-01-13T04:42:01.483Z,99422.09
2023-01-13T04:44:30.647Z,99415.22
2023-01-13T04:46:59.061Z,99410.91
2023-01-13T04:49:26.163Z,99415.22
2023-01-13T04:51:53.387Z,99418.66
2023-01-13T04:54:20.823Z,99413.50
2023-01-13T04:56:49.243Z,99411.75
2023-01-13T04:59:16.290Z,99420.31
2023-01-13T05:01:43.468Z,99418.66
2023-01-13T05:04:10.723Z,99416.91
2023-01-13T05:06:37.712Z,99415.19
2023-01-13T05:09:04.847Z,99421.16
2023-01-13T05:11:50.791Z,99404.94
2023-01-13T05:14:36.399Z,99421.16
2023-01-13T05:17:06.139Z,99416.03
2023-01-13T05:19:35.021Z,99419.44
2023-01-13T05:22:21.528Z,99422.84
2023-01-13T05:25:07.237Z,99421.13
2023-01-13T05:27:34.666Z,99415.13
2023-01-13T05:30:01.985Z,99422.84
2023-01-13T05:32:29.067Z,99422.00
2023-01-13T05:34:56.254Z,99416.06
2023-01-13T05:37:24.408Z,99428.81
2023-01-13T05:40:10.410Z,99425.41
2023-01-13T05:42:56.080Z,99435.69
2023-01-13T05:45:23.593Z,99423.66
2023-01-13T05:47:50.686Z,99430.56
2023-01-13T05:50:18.103Z,99427.16
2023-01-13T05:52:45.253Z,99430.53
2023-01-13T05:55:12.407Z,99427.97
2023-01-13T05:57:39.481Z,99432.28
2023-01-13T06:00:07.544Z,99428.88
2023-01-13T06:02:40.745Z,99435.72
2023-01-13T06:05:08.191Z,99436.56
2023-01-13T06:07:35.345Z,99443.44
2023-01-13T06:10:02.528Z,99439.19
2023-01-13T06:12:29.565Z,99442.63
2023-01-13T06:14:56.660Z,99446.06
2023-01-13T06:17:23.723Z,99447.81
2023-01-13T06:19:51.351Z,99446.09
2023-01-13T06:22:25.428Z,99445.25
2023-01-13T06:24:54.395Z,99441.84
2023-01-13T06:27:23.217Z,99451.28
2023-01-13T06:29:50.654Z,99438.44
2023-01-13T06:32:22.415Z,99439.28
2023-01-13T06:34:54.534Z,99449.56
2023-01-13T06:37:26.311Z,99451.31
2023-01-13T06:39:58.785Z,99447.84
2023-01-13T06:42:52.053Z,99453.88
2023-01-13T06:45:19.594Z,99451.31
2023-01-13T06:47:46.584Z,99450.47
2023-01-13T06:50:13.755Z,99453.00
2023-01-13T06:52:40.710Z,99450.41
2023-01-13T06:55:08.179Z,99454.72
2023-01-13T06:57:35.808Z,99454.72
2023-01-13T07:00:03.637Z,99444.44
2023-01-13T07:02:31.059Z,99441.84
2023-01-13T07:04:58.147Z,99455.56
2023-01-13T07:07:25.176Z,99462.41
2023-01-13T07:09:52.269Z,99464.13
2023-01-13T07:12:19.308Z,99458.09
2023-01-13T07:15:04.797Z,99469.25
2023-01-13T07:17:31.800Z,99459.84
2023-01-13T07:19:58.880Z,99459.84
2023-01-13T07:22:25.896Z,99446.16
2023-01-13T07:24:53.037Z,99451.28
2023-01-13T07:27:20.065Z,99453.81
2023-01-13T07:29:47.197Z,99458.94
2023-01-13T07:32:14.581Z,99441.00
2023-01-13T07:34:41.654Z,99464.94
2023-01-13T07:37:08.697Z,99464.94
2023-01-13T07:39:35.876Z,99464.94
2023-01-13T07:42:21.638Z,99459.78
2023-01-13T07:44:48.763Z,99461.47
2023-01-13T07:47:15.904Z,99478.63
2023-01-13T07:49:43.022Z,99472.63
2023-01-13T07:52:10.130Z,99452.94
2023-01-13T07:54:40.949Z,99464.84
2023-01-13T07:57:08.493Z,99471.72
2023-01-13T07:59:35.727Z,99462.28
2023-01-13T08:02:02.854Z,99476.81
2023-01-13T08:04:30.046Z,99479.41
2023-01-13T08:06:57.110Z,99469.94
2023-01-13T08:09:24.144Z,99482.78
2023-01-13T08:12:14.578Z,99475.94
2023-01-13T08:14:41.451Z,99481.06
2023-01-13T08:17:10.005Z,99493.03
2023-01-13T08:19:37.121Z,99493.88
2023-01-13T08:22:04.164Z,99490.44
2023-01-13T08:24:31.251Z,99499.00
2023-01-13T08:26:58.291Z,99499.00
2023-01-13T08:29:25.317Z,99501.53
2023-01-13T08:31:52.314Z,99504.13
2023-01-13T08:34:19.456Z,99494.69
2023-01-13T08:36:46.502Z,99498.13
2023-01-13T08:39:13.592Z,99505.84
2023-01-13T08:41:55.924Z,99504.16
2023-01-13T08:44:25.408Z,99508.41
2023-01-13T08:46:53.053Z,99504.16
2023-01-13T08:49:20.766Z,99504.19
2023-01-13T08:51:48.297Z,99500.72
2023-01-13T08:54:16.015Z,99504.16
2023-01-13T08:56:44.673Z,99513.56
2023-01-13T08:59:13.592Z,99514.41
2023-01-13T09:01:41.252Z,99517.00
2023-01-13T09:04:20.235Z,99517.88
2023-01-13T09:06:47.605Z,99524.69
2023-01-13T09:09:14.721Z,99522.06
2023-01-13T09:12:07.265Z,99529.75
2023-01-13T09:14:36.708Z,99518.59
2023-01-13T09:17:04.168Z,99516.03
2023-01-13T09:19:31.388Z,99521.97
2023-01-13T09:21:58.643Z,99518.50
2023-01-13T09:24:26.269Z,99515.84
2023-01-13T09:26:54.134Z,99516.69
2023-01-13T09:29:21.412Z,99511.50
2023-01-13T09:31:48.725Z,99507.19
2023-01-13T09:34:37.366Z,99494.31
2023-01-13T09:37:06.589Z,99495.19
2023-01-13T09:39:35.034Z,99500.31
2023-01-13T09:42:53.227Z,99503.69
2023-01-13T09:45:24.079Z,99500.28
2023-01-13T09:48:14.005Z,99501.06
2023-01-13T09:51:05.554Z,99503.56
2023-01-13T09:53:34.294Z,99498.41
2023-01-13T09:56:01.771Z,99495.00
2023-01-13T09:58:29.105Z,99495.84
2023-01-13T10:00:56.119Z,99491.53
2023-01-13T10:03:30.440Z,99489.81
2023-01-13T10:06:09.210Z,99482.91
2023-01-13T10:08:39.270Z,99482.88
2023-01-13T10:11:32.119Z,99474.25
2023-01-13T10:14:16.931Z,99474.19
2023-01-13T10:17:02.779Z,99477.63
2023-01-13T10:19:41.686Z,99473.31
2023-01-13T10:22:21.132Z,99479.31
2023-01-13T10:24:53.800Z,99480.97
2023-01-13T10:27:35.051Z,99480.09
2023-01-13T10:30:36.197Z,99480.09
2023-01-13T10:33:14.247Z,99480.03
2023-01-13T10:36:03.606Z,99475.72
2023-01-13T10:38:44.236Z,99478.31
2023-01-13T10:41:20.245Z,99484.38
2023-01-13T10:43:53.282Z,99484.38
2023-01-13T10:46:20.962Z,99479.25
2023-01-13T10:48:59.810Z,99486.13
2023-01-13T10:51:30.736Z,99481.78
2023-01-13T10:54:14.395Z,99484.38
2023-01-13T10:56:44.921Z,99481.81
2023-01-13T10:59:27.060Z,99475.81
2023-01-13T11:02:19.818Z,99479.25
2023-01-13T11:04:54.958Z,99474.16
2023-01-13T11:07:31.353Z,99469.88
2023-01-13T11:10:18.720Z,99475.88
2023-01-13T11:13:17.093Z,99475.94
2023-01-13T11:15:56.374Z,99479.44
2023-01-13T11:18:36.102Z,99474.34
2023-01-13T11:21:09.566Z,99468.31
2023-01-13T11:23:45.933Z,99470.00
2023-01-13T11:26:28.439Z,99473.41
2023-01-13T11:29:00.099Z,99462.25
2023-01-13T11:31:34.006Z,99461.41
2023-01-13T11:34:21.163Z,99459.75
2023-01-13T11:36:52.404Z,99459.72
2023-01-13T11:39:41.180Z,99446.84
2023-01-13T11:42:28.268Z,99452.00
2023-01-13T11:45:05.761Z,99455.41
2023-01-13T11:47:33.697Z,99446.75
2023-01-13T11:50:01.974Z,99436.38
2023-01-13T11:52:40.756Z,99433.78
2023-01-13T11:55:49.235Z,99455.16
2023-01-13T11:59:09.853Z,99456.91
2023-01-13T12:01:39.594Z,99449.97
2023-01-13T12:04:24.974Z,99448.22
2023-01-13T12:07:22.849Z,99462.84
2023-01-13T12:10:03.827Z,99463.69
2023-01-13T12:13:03.081Z,99461.09
2023-01-13T12:16:12.194Z,99461.16
2023-01-13T12:19:07.829Z,99465.47
2023-01-13T12:22:13.639Z,99465.47
2023-01-13T12:25:01.586Z,99468.91
2023-01-13T12:27:34.386Z,99465.50
2023-01-13T12:30:03.727Z,99461.22
2023-01-13T12:32:38.404Z,99468.94
2023-01-13T12:35:22.603Z,99456.94
2023-01-13T12:38:01.654Z,99458.63
2023-01-13T12:41:10.018Z,99454.38
2023-01-13T12:43:57.438Z,99463.78
2023-01-13T12:46:24.730Z,99463.84
2023-01-13T12:48:55.012Z,99467.28
2023-01-13T12:51:33.564Z,99463.91
2023-01-13T12:54:02.682Z,99472.50
2023-01-13T12:56:34.820Z,99463.09
2023-01-13T12:59:20.949Z,99467.38
2023-01-13T13:01:50.949Z,99472.56
2023-01-13T13:04:19.731Z,99476.03
2023-01-13T13:07:08.213Z,99487.22
2023-01-13T13:09:51.821Z,99493.25
2023-01-13T13:12:49.771Z,99493.31
2023-01-13T13:15:21.299Z,99493.38
2023-01-13T13:18:17.043Z,99498.53
2023-01-13T13:21:04.008Z,99502.03
2023-01-13T13:23:44.439Z,99495.22
2023-01-13T13:26:42.580Z,99503.00
2023-01-13T13:29:30.154Z,99507.31
2023-01-13T13:32:24.970Z,99514.28
2023-01-13T13:35:08.026Z,99512.56
2023-01-13T13:38:15.928Z,99512.63
2023-01-13T13:41:04.962Z,99505.81
2023-01-13T13:43:59.217Z,99510.16
2023-01-13T13:46:47.028Z,99509.34
2023-01-13T13:49:34.339Z,99515.41
2023-01-13T13:52:15.618Z,99509.41
2023-01-13T13:54:48.123Z,99501.72
2023-01-13T13:57:18.954Z,99500.00
2023-01-13T13:59:48.808Z,99492.31
2023-01-13T14:02:20.734Z,99491.44
2023-01-13T14:04:47.844Z,99485.44
2023-01-13T14:07:21.292Z,99492.34
2023-01-13T14:09:51.456Z,99485.47
2023-01-13T14:12:24.739Z,99468.38
2023-01-13T14:14:52.408Z,99463.22
2023-01-13T14:17:25.998Z,99443.50
2023-01-13T14:20:08.188Z,99435.78
2023-01-13T14:22:35.468Z,99442.66
2023-01-13T14:25:02.594Z,99452.97
2023-01-13T14:27:30.735Z,99449.50
2023-01-13T14:30:00.658Z,99447.84
2023-01-13T14:32:36.933Z,99460.69
2023-01-13T14:35:08.138Z,99440.19
2023-01-13T14:37:41.182Z,99450.50
2023-01-13T14:40:33.805Z,99482.03
2023-01-13T14:43:02.420Z,99459.88
2023-01-13T14:45:33.299Z,99495.75
2023-01-13T14:48:01.813Z,99502.63
2023-01-13T14:50:32.928Z,99504.34
2023-01-13T14:53:01.342Z,99502.63
2023-01-13T14:55:34.019Z,99511.22
2023-01-13T14:58:22.300Z,99509.50
2023-01-13T15:01:12.918Z,99500.94
2023-01-13T15:03:41.897Z,99507.78
2023-01-13T15:06:24.470Z,99502.63
2023-01-13T15:08:52.539Z,99513.75
2023-01-13T15:11:29.303Z,99514.63
2023-01-13T15:14:01.651Z,99514.59
2023-01-13T15:16:34.563Z,99510.31
2023-01-13T15:19:01.741Z,99504.31
2023-01-13T15:21:28.944Z,99511.16
2023-01-13T15:23:56.278Z,99521.47
2023-01-13T15:26:26.386Z,99527.44
2023-01-13T15:28:55.973Z,99526.59
2023-01-13T15:31:24.540Z,99529.19
2023-01-13T15:33:51.705Z,99512.06
2023-01-13T15:36:24.884Z,99523.22
2023-01-13T15:38:52.374Z,99526.63
2023-01-13T15:41:39.827Z,99536.97
2023-01-13T15:44:25.722Z,99542.09
2023-01-13T15:46:53.020Z,99521.59
2023-01-13T15:49:26.881Z,99531.84
2023-01-13T15:51:54.293Z,99537.88
2023-01-13T15:54:24.871Z,99549.03
2023-01-13T15:56:52.568Z,99539.63
2023-01-13T15:59:24.868Z,99540.47
2023-01-13T16:01:52.136Z,99547.38
2023-01-13T16:04:19.359Z,99550.78
2023-01-13T16:06:47.660Z,99549.09
2023-01-13T16:09:15.402Z,99549.09
2023-01-13T16:11:42.595Z,99549.09
2023-01-13T16:14:09.700Z,99557.66
2023-01-13T16:16:37.635Z,99564.56
2023-01-13T16:19:04.913Z,99568.84
2023-01-13T16:21:31.975Z,99579.13
2023-01-13T16:23:59.094Z,99581.75
2023-01-13T16:26:29.426Z,99582.59
2023-01-13T16:28:57.206Z,99586.88
2023-01-13T16:31:33.145Z,99583.44
2023-01-13T16:34:02.044Z,99588.56
2023-01-13T16:36:32.728Z,99585.16
2023-01-13T16:39:00.130Z,99572.28
2023-01-13T16:41:27.373Z,99579.19
2023-01-13T16:43:54.642Z,99581.72
2023-01-13T16:46:26.173Z,99592.91
2023-01-13T16:48:55.750Z,99588.63
2023-01-13T16:51:24.801Z,99595.50
2023-01-13T16:53:52.231Z,99603.25
2023-01-13T16:56:26.917Z,99604.13
2023-01-13T16:58:57.033Z,99609.28
2023-01-13T17:01:30.166Z,99616.19
2023-01-13T17:03:58.181Z,99606.75
2023-01-13T17:06:29.711Z,99606.78
2023-01-13T17:09:01.938Z,99616.22
2023-01-13T17:11:29.159Z,99629.94
2023-01-13T17:13:56.376Z,99625.69
2023-01-13T17:16:26.321Z,99635.97
2023-01-13T17:18:54.010Z,99641.97
2023-01-13T17:21:21.294Z,99639.41
2023-01-13T17:23:48.659Z,99638.56
2023-01-13T17:26:32.510Z,99638.59
2023-01-13T17:29:00.952Z,99639.47
2023-01-13T17:31:28.869Z,99647.16
2023-01-13T17:33:56.166Z,99660.88
2023-01-13T17:36:24.774Z,99657.44
2023-01-13T17:38:52.603Z,99654.91
2023-01-13T17:41:19.736Z,99655.75
2023-01-13T17:43:47.171Z,99657.47
2023-01-13T17:46:18.743Z,99655.75
2023-01-13T17:48:46.952Z,99659.19
2023-01-13T17:51:15.696Z,99652.34
2023-01-13T17:53:45.651Z,99632.72
2023-01-13T17:56:14.620Z,99648.94
2023-01-13T17:58:41.890Z,99650.69
2023-01-13T18:01:10.898Z,99648.94
2023-01-13T18:03:39.334Z,99649.81
2023-01-13T18:06:08.892Z,99645.53
2023-01-13T18:08:35.974Z,99643.84
2023-01-13T18:11:03.172Z,99642.13
2023-01-13T18:13:31.820Z,99642.13
2023-01-13T18:16:13.457Z,99645.56
2023-01-13T18:18:42.967Z,99649.84
2023-01-13T18:21:40.591Z,99648.13
2023-01-13T18:24:34.451Z,99654.97
2023-01-13T18:27:23.112Z,99656.72
2023-01-13T18:29:55.158Z,99655.84
2023-01-13T18:32:23.953Z,99657.56
2023-01-13T18:35:01.634Z,99659.28
2023-01-13T18:37:33.088Z,99650.72
2023-01-13T18:40:00.190Z,99654.16
2023-01-13T18:42:45.926Z,99659.31
2023-01-13T18:45:12.965Z,99653.31
2023-01-13T18:47:42.403Z,99661.00
2023-01-13T18:50:12.512Z,99664.41
2023-01-13T18:52:40.502Z,99660.13
2023-01-13T18:55:07.814Z,99667.84
2023-01-13T18:57:39.308Z,99671.25
2023-01-13T19:00:08.914Z,99679.81
2023-01-13T19:02:36.168Z,99673.81
2023-01-13T19:05:03.531Z,99689.22
2023-01-13T19:07:32.077Z,99681.50
2023-01-13T19:10:01.932Z,99685.78
2023-01-13T19:12:31.189Z,99686.63
2023-01-13T19:14:59.144Z,99684.94
2023-01-13T19:17:31.146Z,99698.63
2023-01-13T19:19:59.234Z,99691.75
2023-01-13T19:22:35.014Z,99690.06
2023-01-13T19:25:03.231Z,99703.78
2023-01-13T19:27:30.948Z,99695.19
2023-01-13T19:30:00.642Z,99701.16
2023-01-13T19:32:28.426Z,99702.88
2023-01-13T19:34:59.416Z,99703.75
2023-01-13T19:37:34.430Z,99700.31
2023-01-13T19:40:01.603Z,99697.75
2023-01-13T19:42:47.230Z,99703.75
2023-01-13T19:45:27.955Z,99702.03
2023-01-13T19:47:56.564Z,99699.44
2023-01-13T19:50:24.844Z,99703.78
2023-01-13T19:52:52.091Z,99721.72
2023-01-13T19:55:20.013Z,99720.00
2023-01-13T19:57:47.193Z,99718.28
2023-01-13T20:00:20.751Z,99708.03
2023-01-13T20:02:49.794Z,99719.16
2023-01-13T20:05:21.464Z,99729.44
2023-01-13T20:07:50.214Z,99720.88
2023-01-13T20:10:19.028Z,99734.56
2023-01-13T20:12:46.188Z,99727.72
2023-01-13T20:15:13.783Z,99726.00
2023-01-13T20:17:41.782Z,99746.56
2023-01-13T20:20:10.982Z,99743.16
2023-01-13T20:22:39.228Z,99745.72
2023-01-13T20:25:07.201Z,99747.41
2023-01-13T20:27:34.414Z,99746.53
2023-01-13T20:30:01.638Z,99732.84
2023-01-13T20:32:29.133Z,99744.84
2023-01-13T20:34:56.217Z,99749.97
2023-01-13T20:37:23.291Z,99760.22
2023-01-13T20:39:50.517Z,99751.66
2023-01-13T20:42:29.790Z,99775.63
2023-01-13T20:44:57.946Z,99763.63
2023-01-13T20:47:28.623Z,99756.81
2023-01-13T20:49:55.813Z,99773.91
2023-01-13T20:52:23.121Z,99773.91
2023-01-13T20:54:50.368Z,99777.34
2023-01-13T20:57:17.561Z,99773.91
2023-01-13T20:59:44.658Z,99770.47
2023-01-13T21:02:14.409Z,99779.03
2023-01-13T21:04:41.875Z,99782.47
2023-01-13T21:07:09.158Z,99782.47
2023-01-13T21:09:36.860Z,99778.16
2023-01-13T21:12:22.678Z,99773.91
2023-01-13T21:15:08.558Z,99788.44
2023-01-13T21:17:54.247Z,99788.44
2023-01-13T21:20:21.491Z,99782.47
2023-01-13T21:22:49.227Z,99790.16
2023-01-13T21:25:17.897Z,99792.72
2023-01-13T21:27:44.935Z,99782.47
2023-01-13T21:30:17.205Z,99791.00
2023-01-13T21:32:45.864Z,99793.56
2023-01-13T21:35:14.316Z,99800.41
2023-01-13T21:37:43.238Z,99793.53
2023-01-13T21:40:13.342Z,99785.84
2023-01-13T21:42:59.337Z,99792.69
2023-01-13T21:45:45.426Z,99793.53
2023-01-13T21:48:12.662Z,99790.97
2023-01-13T21:50:39.949Z,99778.13
2023-01-13T21:53:08.337Z,99787.56
2023-01-13T21:55:37.038Z,99785.84
2023-01-13T21:58:12.747Z,99790.97
2023-01-13T22:00:41.858Z,99784.97
2023-01-13T22:03:10.270Z,99790.97
2023-01-13T22:05:37.751Z,99791.81
2023-01-13T22:08:05.453Z,99796.09
2023-01-13T22:10:34.185Z,99797.81
2023-01-13T22:13:21.807Z,99797.78
2023-01-13T22:15:48.870Z,99780.66
2023-01-13T22:18:18.520Z,99792.63
2023-01-13T22:20:46.342Z,99787.47
2023-01-13T22:23:13.732Z,99790.91
2023-01-13T22:25:40.986Z,99806.28
2023-01-13T22:28:09.522Z,99793.47
2023-01-13T22:30:36.914Z,99797.72
2023-01-13T22:33:04.137Z,99802.84
2023-01-13T22:35:31.224Z,99795.16
2023-01-13T22:37:58.660Z,99807.97
2023-01-13T22:40:25.748Z,99792.59
2023-01-13T22:42:52.843Z,99800.31
2023-01-13T22:45:19.899Z,99801.16
2023-01-13T22:47:47.046Z,99801.16
2023-01-13T22:50:14.112Z,99807.97
2023-01-13T22:52:41.308Z,99807.97
2023-01-13T22:55:08.774Z,99818.22
2023-01-13T22:57:46.701Z,99813.09
2023-01-13T23:00:15.265Z,99819.06
2023-01-13T23:02:42.566Z,99807.09
2023-01-13T23:05:09.834Z,99825.03
2023-01-13T23:07:36.943Z,99818.22
2023-01-13T23:10:04.754Z,99830.16
2023-01-13T23:12:31.866Z,99825.03
2023-01-13T23:14:58.861Z,99823.31
2023-01-13T23:17:25.974Z,99823.31
2023-01-13T23:19:53.189Z,99822.47
2023-01-13T23:22:20.243Z,99830.16
2023-01-13T23:24:47.288Z,99828.41
2023-01-13T23:27:14.456Z,99818.13
2023-01-13T23:29:41.669Z,99830.09
2023-01-13T23:32:08.769Z,99847.19
2023-01-13T23:34:35.915Z,99843.75
2023-01-13T23:37:02.991Z,99828.38
2023-01-13T23:39:30.157Z,99828.38
2023-01-13T23:41:57.274Z,99824.94
2023-01-13T23:44:24.349Z,99840.34
2023-01-13T23:46:51.396Z,99848.88
2023-01-13T23:49:18.779Z,99849.72
2023-01-13T23:51:45.975Z,99844.56
2023-01-13T23:54:13.083Z,99840.31
2023-01-13T23:56:40.198Z,99836.00
2023-01-13T23:59:07.336Z,99842.00
